sensor_id;sensor_type;location;lat;lon;timestamp;P1;durP1;ratioP1;P2;durP2;ratioP2
76818;SDS011;65772;51.096;17.006;2022-12-18T00:01:58;21.90;;;8.30;;
76818;SDS011;65772;51.096;17.006;2022-12-18T00:04:28;30.60;;;11.40;;
76818;SDS011;65772;51.096;17.006;2022-12-18T00:06:59;24.80;;;9.10;;
76818;SDS011;65772;51.096;17.006;2022-12-18T00:09:30;27.40;;;9.30;;
76818;SDS011;65772;51.096;17.006;2022-12-18T00:12:07;22.20;;;8.20;;
76818;SDS011;65772;51.096;17.006;2022-12-18T00:14:42;17.50;;;6.20;;
76818;SDS011;65772;51.096;17.006;2022-12-18T00:17:13;26.00;;;10.30;;
76818;SDS011;65772;51.096;17.006;2022-12-18T00:19:43;17.30;;;6.00;;
76818;SDS011;65772;51.096;17.006;2022-12-18T00:22:21;21.90;;;7.80;;
76818;SDS011;65772;51.096;17.006;2022-12-18T00:24:52;16.80;;;5.40;;
76818;SDS011;65772;51.096;17.006;2022-12-18T00:27:22;21.70;;;8.50;;
76818;SDS011;65772;51.096;17.006;2022-12-18T00:29:53;24.60;;;8.20;;
76818;SDS011;65772;51.096;17.006;2022-12-18T00:32:23;28.90;;;9.90;;
76818;SDS011;65772;51.096;17.006;2022-12-18T00:34:54;28.00;;;8.60;;
76818;SDS011;65772;51.096;17.006;2022-12-18T00:37:24;22.20;;;7.40;;
76818;SDS011;65772;51.096;17.006;2022-12-18T00:39:56;25.80;;;8.80;;
76818;SDS011;65772;51.096;17.006;2022-12-18T00:42:26;26.60;;;8.60;;
76818;SDS011;65772;51.096;17.006;2022-12-18T00:45:14;27.20;;;9.30;;
76818;SDS011;65772;51.096;17.006;2022-12-18T00:47:46;22.00;;;7.60;;
76818;SDS011;65772;51.096;17.006;2022-12-18T00:50:17;21.20;;;8.40;;
76818;SDS011;65772;51.096;17.006;2022-12-18T00:52:47;22.50;;;8.20;;
76818;SDS011;65772;51.096;17.006;2022-12-18T00:55:18;26.30;;;8.40;;
76818;SDS011;65772;51.096;17.006;2022-12-18T00:57:49;23.60;;;9.20;;
76818;SDS011;65772;51.096;17.006;2022-12-18T01:00:21;24.20;;;8.10;;
76818;SDS011;65772;51.096;17.006;2022-12-18T01:02:52;19.70;;;7.10;;
76818;SDS011;65772;51.096;17.006;2022-12-18T01:05:22;35.20;;;11.80;;
76818;SDS011;65772;51.096;17.006;2022-12-18T01:07:54;42.70;;;12.80;;
76818;SDS011;65772;51.096;17.006;2022-12-18T01:10:25;47.70;;;13.70;;
76818;SDS011;65772;51.096;17.006;2022-12-18T01:12:57;37.70;;;13.50;;
76818;SDS011;65772;51.096;17.006;2022-12-18T01:15:28;42.50;;;13.70;;
76818;SDS011;65772;51.096;17.006;2022-12-18T01:17:59;34.40;;;13.00;;
76818;SDS011;65772;51.096;17.006;2022-12-18T01:20:29;29.20;;;10.50;;
76818;SDS011;65772;51.096;17.006;2022-12-18T01:23:00;21.90;;;8.00;;
76818;SDS011;65772;51.096;17.006;2022-12-18T01:25:30;22.00;;;7.50;;
76818;SDS011;65772;51.096;17.006;2022-12-18T01:28:01;22.50;;;7.50;;
76818;SDS011;65772;51.096;17.006;2022-12-18T01:30:32;15.70;;;5.90;;
76818;SDS011;65772;51.096;17.006;2022-12-18T01:33:03;21.20;;;7.40;;
76818;SDS011;65772;51.096;17.006;2022-12-18T01:35:40;29.50;;;9.00;;
76818;SDS011;65772;51.096;17.006;2022-12-18T01:38:11;27.80;;;10.10;;
76818;SDS011;65772;51.096;17.006;2022-12-18T01:40:41;25.40;;;9.80;;
76818;SDS011;65772;51.096;17.006;2022-12-18T01:43:12;23.90;;;7.80;;
76818;SDS011;65772;51.096;17.006;2022-12-18T01:45:43;24.60;;;8.40;;
76818;SDS011;65772;51.096;17.006;2022-12-18T01:48:13;22.30;;;8.00;;
76818;SDS011;65772;51.096;17.006;2022-12-18T01:50:44;26.30;;;8.70;;
76818;SDS011;65772;51.096;17.006;2022-12-18T01:53:17;20.70;;;7.10;;
76818;SDS011;65772;51.096;17.006;2022-12-18T01:55:52;23.40;;;8.50;;
76818;SDS011;65772;51.096;17.006;2022-12-18T01:58:27;23.80;;;7.50;;
76818;SDS011;65772;51.096;17.006;2022-12-18T02:01:04;19.60;;;7.10;;
76818;SDS011;65772;51.096;17.006;2022-12-18T02:03:35;23.30;;;7.90;;
76818;SDS011;65772;51.096;17.006;2022-12-18T02:06:08;22.20;;;8.10;;
76818;SDS011;65772;51.096;17.006;2022-12-18T02:08:45;21.20;;;7.10;;
76818;SDS011;65772;51.096;17.006;2022-12-18T02:11:26;24.80;;;8.30;;
76818;SDS011;65772;51.096;17.006;2022-12-18T02:14:11;21.00;;;8.00;;
76818;SDS011;65772;51.096;17.006;2022-12-18T02:16:51;21.00;;;7.60;;
76818;SDS011;65772;51.096;17.006;2022-12-18T02:19:37;19.90;;;7.00;;
76818;SDS011;65772;51.096;17.006;2022-12-18T02:22:17;19.30;;;6.50;;
76818;SDS011;65772;51.096;17.006;2022-12-18T02:25:01;29.10;;;8.80;;
76818;SDS011;65772;51.096;17.006;2022-12-18T02:27:48;28.50;;;10.00;;
76818;SDS011;65772;51.096;17.006;2022-12-18T02:30:20;39.70;;;12.40;;
76818;SDS011;65772;51.096;17.006;2022-12-18T02:32:52;35.40;;;12.00;;
76818;SDS011;65772;51.096;17.006;2022-12-18T02:35:25;34.50;;;12.50;;
76818;SDS011;65772;51.096;17.006;2022-12-18T02:37:59;27.30;;;9.50;;
76818;SDS011;65772;51.096;17.006;2022-12-18T02:40:30;19.40;;;7.90;;
76818;SDS011;65772;51.096;17.006;2022-12-18T02:43:06;25.10;;;9.70;;
76818;SDS011;65772;51.096;17.006;2022-12-18T02:45:45;18.80;;;7.80;;
76818;SDS011;65772;51.096;17.006;2022-12-18T02:48:19;23.50;;;9.60;;
76818;SDS011;65772;51.096;17.006;2022-12-18T02:50:54;19.60;;;8.00;;
76818;SDS011;65772;51.096;17.006;2022-12-18T02:53:33;20.40;;;7.50;;
76818;SDS011;65772;51.096;17.006;2022-12-18T02:56:11;27.70;;;8.70;;
76818;SDS011;65772;51.096;17.006;2022-12-18T02:58:48;20.70;;;7.40;;
76818;SDS011;65772;51.096;17.006;2022-12-18T03:01:42;19.50;;;7.30;;
76818;SDS011;65772;51.096;17.006;2022-12-18T03:04:20;16.40;;;6.40;;
76818;SDS011;65772;51.096;17.006;2022-12-18T03:06:56;22.20;;;7.50;;
76818;SDS011;65772;51.096;17.006;2022-12-18T03:09:32;19.90;;;7.10;;
76818;SDS011;65772;51.096;17.006;2022-12-18T03:12:07;22.40;;;7.50;;
76818;SDS011;65772;51.096;17.006;2022-12-18T03:14:55;22.40;;;8.20;;
76818;SDS011;65772;51.096;17.006;2022-12-18T03:17:32;18.70;;;7.20;;
76818;SDS011;65772;51.096;17.006;2022-12-18T03:20:05;21.00;;;8.30;;
76818;SDS011;65772;51.096;17.006;2022-12-18T03:22:41;21.50;;;8.50;;
76818;SDS011;65772;51.096;17.006;2022-12-18T03:25:15;19.10;;;6.80;;
76818;SDS011;65772;51.096;17.006;2022-12-18T03:27:49;17.40;;;7.80;;
76818;SDS011;65772;51.096;17.006;2022-12-18T03:30:25;20.20;;;8.10;;
76818;SDS011;65772;51.096;17.006;2022-12-18T03:33:01;24.10;;;9.00;;
76818;SDS011;65772;51.096;17.006;2022-12-18T03:35:37;25.10;;;9.10;;
76818;SDS011;65772;51.096;17.006;2022-12-18T03:38:11;26.80;;;8.60;;
76818;SDS011;65772;51.096;17.006;2022-12-18T03:40:47;18.50;;;7.50;;
76818;SDS011;65772;51.096;17.006;2022-12-18T03:43:28;22.10;;;8.50;;
76818;SDS011;65772;51.096;17.006;2022-12-18T03:46:11;18.10;;;6.50;;
76818;SDS011;65772;51.096;17.006;2022-12-18T03:48:51;23.50;;;7.80;;
76818;SDS011;65772;51.096;17.006;2022-12-18T03:51:28;40.00;;;11.70;;
76818;SDS011;65772;51.096;17.006;2022-12-18T03:54:06;42.40;;;12.40;;
76818;SDS011;65772;51.096;17.006;2022-12-18T03:56:44;33.00;;;11.40;;
76818;SDS011;65772;51.096;17.006;2022-12-18T03:59:21;30.90;;;11.50;;
76818;SDS011;65772;51.096;17.006;2022-12-18T04:01:54;25.70;;;8.60;;
76818;SDS011;65772;51.096;17.006;2022-12-18T04:04:28;18.90;;;5.80;;
76818;SDS011;65772;51.096;17.006;2022-12-18T04:07:00;19.40;;;7.20;;
76818;SDS011;65772;51.096;17.006;2022-12-18T04:09:33;21.70;;;7.80;;
76818;SDS011;65772;51.096;17.006;2022-12-18T04:12:09;25.40;;;8.20;;
76818;SDS011;65772;51.096;17.006;2022-12-18T04:14:40;22.70;;;8.70;;
76818;SDS011;65772;51.096;17.006;2022-12-18T04:17:13;25.00;;;9.20;;
76818;SDS011;65772;51.096;17.006;2022-12-18T04:19:44;20.20;;;6.80;;
76818;SDS011;65772;51.096;17.006;2022-12-18T04:22:15;22.00;;;7.30;;
76818;SDS011;65772;51.096;17.006;2022-12-18T04:24:47;18.70;;;7.50;;
76818;SDS011;65772;51.096;17.006;2022-12-18T04:27:24;20.00;;;8.40;;
76818;SDS011;65772;51.096;17.006;2022-12-18T04:29:55;25.60;;;8.30;;
76818;SDS011;65772;51.096;17.006;2022-12-18T04:32:26;21.10;;;6.90;;
76818;SDS011;65772;51.096;17.006;2022-12-18T04:34:56;19.70;;;7.40;;
76818;SDS011;65772;51.096;17.006;2022-12-18T04:37:26;23.90;;;8.90;;
76818;SDS011;65772;51.096;17.006;2022-12-18T04:39:57;18.80;;;7.00;;
76818;SDS011;65772;51.096;17.006;2022-12-18T04:42:33;25.30;;;8.30;;
76818;SDS011;65772;51.096;17.006;2022-12-18T04:45:05;22.30;;;7.80;;
76818;SDS011;65772;51.096;17.006;2022-12-18T04:47:37;23.50;;;8.20;;
76818;SDS011;65772;51.096;17.006;2022-12-18T04:50:08;24.80;;;8.50;;
76818;SDS011;65772;51.096;17.006;2022-12-18T04:52:39;28.10;;;8.50;;
76818;SDS011;65772;51.096;17.006;2022-12-18T04:55:09;24.60;;;8.80;;
76818;SDS011;65772;51.096;17.006;2022-12-18T04:57:40;25.40;;;8.90;;
76818;SDS011;65772;51.096;17.006;2022-12-18T05:00:11;22.70;;;8.60;;
76818;SDS011;65772;51.096;17.006;2022-12-18T05:02:43;26.70;;;8.70;;
76818;SDS011;65772;51.096;17.006;2022-12-18T05:05:13;22.90;;;8.60;;
76818;SDS011;65772;51.096;17.006;2022-12-18T05:07:44;23.20;;;8.40;;
76818;SDS011;65772;51.096;17.006;2022-12-18T05:10:15;21.80;;;8.70;;
76818;SDS011;65772;51.096;17.006;2022-12-18T05:12:46;28.10;;;10.00;;
76818;SDS011;65772;51.096;17.006;2022-12-18T05:15:29;40.40;;;13.50;;
76818;SDS011;65772;51.096;17.006;2022-12-18T05:18:01;43.00;;;13.30;;
76818;SDS011;65772;51.096;17.006;2022-12-18T05:20:33;35.40;;;12.20;;
76818;SDS011;65772;51.096;17.006;2022-12-18T05:23:03;32.40;;;11.10;;
76818;SDS011;65772;51.096;17.006;2022-12-18T05:25:33;28.50;;;11.10;;
76818;SDS011;65772;51.096;17.006;2022-12-18T05:28:04;23.00;;;9.00;;
76818;SDS011;65772;51.096;17.006;2022-12-18T05:30:34;24.30;;;9.10;;
76818;SDS011;65772;51.096;17.006;2022-12-18T05:33:05;21.40;;;8.10;;
76818;SDS011;65772;51.096;17.006;2022-12-18T05:35:35;22.40;;;8.40;;
76818;SDS011;65772;51.096;17.006;2022-12-18T05:38:06;21.30;;;8.70;;
76818;SDS011;65772;51.096;17.006;2022-12-18T05:40:36;18.10;;;7.50;;
76818;SDS011;65772;51.096;17.006;2022-12-18T05:43:09;20.40;;;8.40;;
76818;SDS011;65772;51.096;17.006;2022-12-18T05:45:47;20.10;;;8.90;;
76818;SDS011;65772;51.096;17.006;2022-12-18T05:48:18;18.20;;;7.30;;
76818;SDS011;65772;51.096;17.006;2022-12-18T05:50:50;26.60;;;9.30;;
76818;SDS011;65772;51.096;17.006;2022-12-18T05:53:20;18.30;;;8.00;;
76818;SDS011;65772;51.096;17.006;2022-12-18T05:55:51;22.60;;;8.20;;
76818;SDS011;65772;51.096;17.006;2022-12-18T05:58:21;26.60;;;9.70;;
76818;SDS011;65772;51.096;17.006;2022-12-18T06:00:52;22.50;;;7.70;;
76818;SDS011;65772;51.096;17.006;2022-12-18T06:03:23;25.10;;;9.70;;
76818;SDS011;65772;51.096;17.006;2022-12-18T06:06:00;21.80;;;8.00;;
76818;SDS011;65772;51.096;17.006;2022-12-18T06:08:31;30.40;;;11.40;;
76818;SDS011;65772;51.096;17.006;2022-12-18T06:11:01;26.40;;;9.10;;
76818;SDS011;65772;51.096;17.006;2022-12-18T06:13:32;24.20;;;9.20;;
76818;SDS011;65772;51.096;17.006;2022-12-18T06:16:03;25.00;;;10.80;;
76818;SDS011;65772;51.096;17.006;2022-12-18T06:18:35;29.80;;;10.10;;
76818;SDS011;65772;51.096;17.006;2022-12-18T06:21:06;27.30;;;10.50;;
76818;SDS011;65772;51.096;17.006;2022-12-18T06:23:36;25.10;;;9.70;;
76818;SDS011;65772;51.096;17.006;2022-12-18T06:26:08;25.70;;;10.80;;
76818;SDS011;65772;51.096;17.006;2022-12-18T06:28:40;28.30;;;11.20;;
76818;SDS011;65772;51.096;17.006;2022-12-18T06:31:11;35.30;;;12.60;;
76818;SDS011;65772;51.096;17.006;2022-12-18T06:33:42;32.50;;;11.20;;
76818;SDS011;65772;51.096;17.006;2022-12-18T06:36:13;31.10;;;10.70;;
76818;SDS011;65772;51.096;17.006;2022-12-18T06:38:44;30.40;;;11.70;;
76818;SDS011;65772;51.096;17.006;2022-12-18T06:41:16;27.60;;;10.40;;
76818;SDS011;65772;51.096;17.006;2022-12-18T06:43:48;26.00;;;10.50;;
76818;SDS011;65772;51.096;17.006;2022-12-18T06:46:24;34.10;;;11.40;;
76818;SDS011;65772;51.096;17.006;2022-12-18T06:48:55;28.50;;;11.60;;
76818;SDS011;65772;51.096;17.006;2022-12-18T06:51:25;31.70;;;12.80;;
76818;SDS011;65772;51.096;17.006;2022-12-18T06:53:56;31.90;;;11.30;;
76818;SDS011;65772;51.096;17.006;2022-12-18T06:56:26;37.00;;;13.90;;
76818;SDS011;65772;51.096;17.006;2022-12-18T06:58:57;32.90;;;12.60;;
76818;SDS011;65772;51.096;17.006;2022-12-18T07:01:28;30.10;;;12.00;;
76818;SDS011;65772;51.096;17.006;2022-12-18T07:03:59;33.50;;;11.50;;
76818;SDS011;65772;51.096;17.006;2022-12-18T07:06:29;45.30;;;17.00;;
76818;SDS011;65772;51.096;17.006;2022-12-18T07:09:00;56.70;;;17.90;;
76818;SDS011;65772;51.096;17.006;2022-12-18T07:11:31;51.40;;;17.40;;
76818;SDS011;65772;51.096;17.006;2022-12-18T07:14:02;41.90;;;16.30;;
76818;SDS011;65772;51.096;17.006;2022-12-18T07:16:33;38.70;;;15.10;;
76818;SDS011;65772;51.096;17.006;2022-12-18T07:19:03;37.80;;;14.20;;
76818;SDS011;65772;51.096;17.006;2022-12-18T07:21:34;31.40;;;12.50;;
76818;SDS011;65772;51.096;17.006;2022-12-18T07:24:05;31.40;;;11.70;;
76818;SDS011;65772;51.096;17.006;2022-12-18T07:26:36;29.20;;;11.60;;
76818;SDS011;65772;51.096;17.006;2022-12-18T07:29:07;34.80;;;13.00;;
76818;SDS011;65772;51.096;17.006;2022-12-18T07:31:38;28.90;;;11.10;;
76818;SDS011;65772;51.096;17.006;2022-12-18T07:34:11;25.10;;;10.70;;
76818;SDS011;65772;51.096;17.006;2022-12-18T07:36:42;31.60;;;12.10;;
76818;SDS011;65772;51.096;17.006;2022-12-18T07:39:13;28.80;;;11.50;;
76818;SDS011;65772;51.096;17.006;2022-12-18T07:41:45;28.40;;;10.40;;
76818;SDS011;65772;51.096;17.006;2022-12-18T07:44:35;26.40;;;9.00;;
76818;SDS011;65772;51.096;17.006;2022-12-18T07:47:06;27.40;;;10.30;;
76818;SDS011;65772;51.096;17.006;2022-12-18T07:49:39;33.20;;;12.50;;
76818;SDS011;65772;51.096;17.006;2022-12-18T07:52:09;31.50;;;11.50;;
76818;SDS011;65772;51.096;17.006;2022-12-18T07:54:40;23.30;;;9.00;;
76818;SDS011;65772;51.096;17.006;2022-12-18T07:57:10;27.00;;;10.30;;
76818;SDS011;65772;51.096;17.006;2022-12-18T08:00:01;24.30;;;9.90;;
76818;SDS011;65772;51.096;17.006;2022-12-18T08:02:38;24.50;;;10.20;;
76818;SDS011;65772;51.096;17.006;2022-12-18T08:05:09;27.10;;;11.10;;
76818;SDS011;65772;51.096;17.006;2022-12-18T08:07:41;26.30;;;10.90;;
76818;SDS011;65772;51.096;17.006;2022-12-18T08:10:11;28.60;;;11.30;;
76818;SDS011;65772;51.096;17.006;2022-12-18T08:12:42;25.10;;;10.60;;
76818;SDS011;65772;51.096;17.006;2022-12-18T08:15:12;27.70;;;12.30;;
76818;SDS011;65772;51.096;17.006;2022-12-18T08:17:43;29.50;;;11.00;;
76818;SDS011;65772;51.096;17.006;2022-12-18T08:20:13;23.00;;;11.00;;
76818;SDS011;65772;51.096;17.006;2022-12-18T08:22:46;26.40;;;10.40;;
76818;SDS011;65772;51.096;17.006;2022-12-18T08:25:16;24.50;;;10.30;;
76818;SDS011;65772;51.096;17.006;2022-12-18T08:27:47;22.80;;;9.60;;
76818;SDS011;65772;51.096;17.006;2022-12-18T08:30:17;22.10;;;9.40;;
76818;SDS011;65772;51.096;17.006;2022-12-18T08:32:52;24.40;;;10.40;;
76818;SDS011;65772;51.096;17.006;2022-12-18T08:35:22;25.00;;;10.40;;
76818;SDS011;65772;51.096;17.006;2022-12-18T08:37:52;27.10;;;10.10;;
76818;SDS011;65772;51.096;17.006;2022-12-18T08:40:23;25.30;;;10.20;;
76818;SDS011;65772;51.096;17.006;2022-12-18T08:42:53;27.50;;;9.80;;
76818;SDS011;65772;51.096;17.006;2022-12-18T08:45:42;36.40;;;13.30;;
76818;SDS011;65772;51.096;17.006;2022-12-18T08:48:12;32.40;;;11.80;;
76818;SDS011;65772;51.096;17.006;2022-12-18T08:50:54;20.60;;;9.20;;
76818;SDS011;65772;51.096;17.006;2022-12-18T08:53:26;25.50;;;10.60;;
76818;SDS011;65772;51.096;17.006;2022-12-18T08:56:02;27.40;;;10.30;;
76818;SDS011;65772;51.096;17.006;2022-12-18T08:58:34;25.90;;;10.20;;
76818;SDS011;65772;51.096;17.006;2022-12-18T09:01:05;25.20;;;10.80;;
76818;SDS011;65772;51.096;17.006;2022-12-18T09:03:37;27.10;;;10.80;;
76818;SDS011;65772;51.096;17.006;2022-12-18T09:06:09;25.00;;;9.50;;
76818;SDS011;65772;51.096;17.006;2022-12-18T09:08:44;29.00;;;11.40;;
76818;SDS011;65772;51.096;17.006;2022-12-18T09:11:18;25.60;;;10.10;;
76818;SDS011;65772;51.096;17.006;2022-12-18T09:13:50;23.70;;;10.10;;
76818;SDS011;65772;51.096;17.006;2022-12-18T09:16:22;26.90;;;10.00;;
76818;SDS011;65772;51.096;17.006;2022-12-18T09:18:59;27.60;;;10.40;;
76818;SDS011;65772;51.096;17.006;2022-12-18T09:21:31;27.00;;;12.00;;
76818;SDS011;65772;51.096;17.006;2022-12-18T09:24:05;36.20;;;14.00;;
76818;SDS011;65772;51.096;17.006;2022-12-18T09:26:39;30.30;;;12.00;;
76818;SDS011;65772;51.096;17.006;2022-12-18T09:29:14;26.00;;;10.70;;
76818;SDS011;65772;51.096;17.006;2022-12-18T09:31:45;24.90;;;10.50;;
76818;SDS011;65772;51.096;17.006;2022-12-18T09:34:17;19.80;;;8.00;;
76818;SDS011;65772;51.096;17.006;2022-12-18T09:36:49;34.00;;;11.60;;
76818;SDS011;65772;51.096;17.006;2022-12-18T09:39:20;37.00;;;14.00;;
76818;SDS011;65772;51.096;17.006;2022-12-18T09:41:52;36.20;;;14.80;;
76818;SDS011;65772;51.096;17.006;2022-12-18T09:44:25;32.80;;;11.60;;
76818;SDS011;65772;51.096;17.006;2022-12-18T09:47:04;25.80;;;11.80;;
76818;SDS011;65772;51.096;17.006;2022-12-18T09:49:42;32.10;;;14.10;;
76818;SDS011;65772;51.096;17.006;2022-12-18T09:52:15;26.70;;;11.30;;
76818;SDS011;65772;51.096;17.006;2022-12-18T09:54:52;22.40;;;9.50;;
76818;SDS011;65772;51.096;17.006;2022-12-18T09:57:25;28.60;;;12.40;;
76818;SDS011;65772;51.096;17.006;2022-12-18T10:00:02;19.40;;;8.50;;
76818;SDS011;65772;51.096;17.006;2022-12-18T10:02:41;25.90;;;10.40;;
76818;SDS011;65772;51.096;17.006;2022-12-18T10:05:12;28.30;;;10.70;;
76818;SDS011;65772;51.096;17.006;2022-12-18T10:10:26;25.50;;;9.70;;
76818;SDS011;65772;51.096;17.006;2022-12-18T10:15:38;23.20;;;8.20;;
76818;SDS011;65772;51.096;17.006;2022-12-18T10:18:19;29.80;;;12.00;;
76818;SDS011;65772;51.096;17.006;2022-12-18T10:21:01;27.40;;;10.40;;
76818;SDS011;65772;51.096;17.006;2022-12-18T10:26:15;23.20;;;8.60;;
76818;SDS011;65772;51.096;17.006;2022-12-18T10:28:46;25.60;;;10.20;;
76818;SDS011;65772;51.096;17.006;2022-12-18T10:31:18;27.10;;;10.20;;
76818;SDS011;65772;51.096;17.006;2022-12-18T10:33:51;28.20;;;10.90;;
76818;SDS011;65772;51.096;17.006;2022-12-18T10:38:53;22.40;;;9.10;;
76818;SDS011;65772;51.096;17.006;2022-12-18T10:41:42;37.20;;;13.60;;
76818;SDS011;65772;51.096;17.006;2022-12-18T10:44:15;18.70;;;7.90;;
76818;SDS011;65772;51.096;17.006;2022-12-18T10:46:48;27.30;;;10.60;;
76818;SDS011;65772;51.096;17.006;2022-12-18T10:49:24;26.70;;;9.20;;
76818;SDS011;65772;51.096;17.006;2022-12-18T10:52:14;28.10;;;10.30;;
76818;SDS011;65772;51.096;17.006;2022-12-18T10:54:48;28.10;;;10.00;;
76818;SDS011;65772;51.096;17.006;2022-12-18T10:57:34;31.30;;;12.20;;
76818;SDS011;65772;51.096;17.006;2022-12-18T11:03:02;32.90;;;12.70;;
76818;SDS011;65772;51.096;17.006;2022-12-18T11:05:54;29.80;;;11.70;;
76818;SDS011;65772;51.096;17.006;2022-12-18T11:08:33;30.10;;;11.80;;
76818;SDS011;65772;51.096;17.006;2022-12-18T11:11:06;34.00;;;11.80;;
76818;SDS011;65772;51.096;17.006;2022-12-18T11:13:49;30.10;;;11.40;;
76818;SDS011;65772;51.096;17.006;2022-12-18T11:16:27;30.00;;;12.10;;
76818;SDS011;65772;51.096;17.006;2022-12-18T11:19:10;33.70;;;13.10;;
76818;SDS011;65772;51.096;17.006;2022-12-18T11:21:49;31.30;;;13.70;;
76818;SDS011;65772;51.096;17.006;2022-12-18T11:24:22;31.50;;;12.20;;
76818;SDS011;65772;51.096;17.006;2022-12-18T11:26:56;27.90;;;11.90;;
76818;SDS011;65772;51.096;17.006;2022-12-18T11:29:32;34.70;;;12.60;;
76818;SDS011;65772;51.096;17.006;2022-12-18T11:32:29;30.10;;;11.00;;
76818;SDS011;65772;51.096;17.006;2022-12-18T11:35:04;26.70;;;10.10;;
76818;SDS011;65772;51.096;17.006;2022-12-18T11:37:45;26.10;;;10.00;;
76818;SDS011;65772;51.096;17.006;2022-12-18T11:40:22;27.50;;;10.20;;
76818;SDS011;65772;51.096;17.006;2022-12-18T11:43:09;25.20;;;9.80;;
76818;SDS011;65772;51.096;17.006;2022-12-18T11:45:45;27.40;;;9.80;;
76818;SDS011;65772;51.096;17.006;2022-12-18T11:48:22;28.40;;;10.30;;
76818;SDS011;65772;51.096;17.006;2022-12-18T11:50:56;29.60;;;11.50;;
76818;SDS011;65772;51.096;17.006;2022-12-18T11:53:29;26.30;;;10.90;;
76818;SDS011;65772;51.096;17.006;2022-12-18T11:56:02;30.30;;;10.90;;
76818;SDS011;65772;51.096;17.006;2022-12-18T11:58:46;27.20;;;10.50;;
76818;SDS011;65772;51.096;17.006;2022-12-18T12:01:24;24.80;;;10.50;;
76818;SDS011;65772;51.096;17.006;2022-12-18T12:04:26;27.80;;;10.90;;
76818;SDS011;65772;51.096;17.006;2022-12-18T12:07:15;23.20;;;10.40;;
76818;SDS011;65772;51.096;17.006;2022-12-18T12:09:55;21.00;;;9.30;;
76818;SDS011;65772;51.096;17.006;2022-12-18T12:12:39;26.10;;;10.40;;
76818;SDS011;65772;51.096;17.006;2022-12-18T12:15:25;28.20;;;11.20;;
76818;SDS011;65772;51.096;17.006;2022-12-18T12:18:09;28.00;;;11.20;;
76818;SDS011;65772;51.096;17.006;2022-12-18T12:20:53;24.20;;;9.70;;
76818;SDS011;65772;51.096;17.006;2022-12-18T12:23:34;29.90;;;11.50;;
76818;SDS011;65772;51.096;17.006;2022-12-18T12:26:11;29.40;;;12.60;;
76818;SDS011;65772;51.096;17.006;2022-12-18T12:28:55;27.70;;;12.10;;
76818;SDS011;65772;51.096;17.006;2022-12-18T12:31:36;30.90;;;11.10;;
76818;SDS011;65772;51.096;17.006;2022-12-18T12:34:18;31.60;;;11.50;;
76818;SDS011;65772;51.096;17.006;2022-12-18T12:36:57;32.50;;;12.20;;
76818;SDS011;65772;51.096;17.006;2022-12-18T12:39:37;34.00;;;13.10;;
76818;SDS011;65772;51.096;17.006;2022-12-18T12:42:12;36.30;;;12.40;;
76818;SDS011;65772;51.096;17.006;2022-12-18T12:45:01;34.80;;;12.70;;
76818;SDS011;65772;51.096;17.006;2022-12-18T12:47:36;27.30;;;11.80;;
76818;SDS011;65772;51.096;17.006;2022-12-18T12:50:13;32.20;;;11.50;;
76818;SDS011;65772;51.096;17.006;2022-12-18T12:52:49;31.40;;;11.20;;
76818;SDS011;65772;51.096;17.006;2022-12-18T12:55:24;31.30;;;12.20;;
76818;SDS011;65772;51.096;17.006;2022-12-18T12:57:59;32.30;;;12.70;;
76818;SDS011;65772;51.096;17.006;2022-12-18T13:00:39;39.80;;;14.80;;
76818;SDS011;65772;51.096;17.006;2022-12-18T13:03:27;37.10;;;14.40;;
76818;SDS011;65772;51.096;17.006;2022-12-18T13:06:09;36.70;;;14.40;;
76818;SDS011;65772;51.096;17.006;2022-12-18T13:08:53;30.40;;;13.20;;
76818;SDS011;65772;51.096;17.006;2022-12-18T13:11:29;29.40;;;10.80;;
76818;SDS011;65772;51.096;17.006;2022-12-18T13:14:29;48.10;;;16.00;;
76818;SDS011;65772;51.096;17.006;2022-12-18T13:17:21;54.00;;;19.10;;
76818;SDS011;65772;51.096;17.006;2022-12-18T13:20:08;51.30;;;16.80;;
76818;SDS011;65772;51.096;17.006;2022-12-18T13:22:44;42.10;;;14.90;;
76818;SDS011;65772;51.096;17.006;2022-12-18T13:25:29;49.20;;;16.60;;
76818;SDS011;65772;51.096;17.006;2022-12-18T13:28:10;34.70;;;13.20;;
76818;SDS011;65772;51.096;17.006;2022-12-18T13:30:42;37.60;;;13.90;;
76818;SDS011;65772;51.096;17.006;2022-12-18T13:33:38;36.50;;;14.30;;
76818;SDS011;65772;51.096;17.006;2022-12-18T13:36:31;33.20;;;13.40;;
76818;SDS011;65772;51.096;17.006;2022-12-18T13:39:23;36.80;;;14.00;;
76818;SDS011;65772;51.096;17.006;2022-12-18T13:45:42;29.10;;;11.40;;
76818;SDS011;65772;51.096;17.006;2022-12-18T13:48:18;39.60;;;13.90;;
76818;SDS011;65772;51.096;17.006;2022-12-18T13:50:56;39.60;;;13.30;;
76818;SDS011;65772;51.096;17.006;2022-12-18T13:53:32;35.20;;;13.20;;
76818;SDS011;65772;51.096;17.006;2022-12-18T13:56:06;34.70;;;12.90;;
76818;SDS011;65772;51.096;17.006;2022-12-18T13:58:37;37.40;;;13.20;;
76818;SDS011;65772;51.096;17.006;2022-12-18T14:01:16;34.50;;;12.80;;
76818;SDS011;65772;51.096;17.006;2022-12-18T14:06:46;33.80;;;11.10;;
76818;SDS011;65772;51.096;17.006;2022-12-18T14:09:19;28.40;;;11.70;;
76818;SDS011;65772;51.096;17.006;2022-12-18T14:11:54;33.90;;;11.60;;
76818;SDS011;65772;51.096;17.006;2022-12-18T14:14:42;35.70;;;13.10;;
76818;SDS011;65772;51.096;17.006;2022-12-18T14:17:18;39.30;;;12.70;;
76818;SDS011;65772;51.096;17.006;2022-12-18T14:19:50;32.50;;;11.90;;
76818;SDS011;65772;51.096;17.006;2022-12-18T14:22:21;28.70;;;10.90;;
76818;SDS011;65772;51.096;17.006;2022-12-18T14:25:10;30.00;;;11.10;;
76818;SDS011;65772;51.096;17.006;2022-12-18T14:27:46;32.60;;;11.00;;
76818;SDS011;65772;51.096;17.006;2022-12-18T14:30:29;32.40;;;12.20;;
76818;SDS011;65772;51.096;17.006;2022-12-18T14:33:02;31.00;;;11.10;;
76818;SDS011;65772;51.096;17.006;2022-12-18T14:35:38;29.00;;;11.10;;
76818;SDS011;65772;51.096;17.006;2022-12-18T14:38:18;27.50;;;9.10;;
76818;SDS011;65772;51.096;17.006;2022-12-18T14:40:56;18.70;;;7.20;;
76818;SDS011;65772;51.096;17.006;2022-12-18T14:43:29;30.80;;;11.30;;
76818;SDS011;65772;51.096;17.006;2022-12-18T14:46:01;32.80;;;11.00;;
76818;SDS011;65772;51.096;17.006;2022-12-18T14:48:38;30.40;;;11.90;;
76818;SDS011;65772;51.096;17.006;2022-12-18T14:51:15;36.40;;;15.40;;
76818;SDS011;65772;51.096;17.006;2022-12-18T14:53:48;26.90;;;10.00;;
76818;SDS011;65772;51.096;17.006;2022-12-18T14:56:26;57.60;;;18.80;;
76818;SDS011;65772;51.096;17.006;2022-12-18T14:58:58;35.30;;;12.60;;
76818;SDS011;65772;51.096;17.006;2022-12-18T15:04:02;63.50;;;18.40;;
76818;SDS011;65772;51.096;17.006;2022-12-18T15:07:03;39.20;;;13.10;;
76818;SDS011;65772;51.096;17.006;2022-12-18T15:09:37;26.30;;;10.00;;
76818;SDS011;65772;51.096;17.006;2022-12-18T15:15:02;33.20;;;9.20;;
76818;SDS011;65772;51.096;17.006;2022-12-18T15:17:35;34.10;;;12.10;;
76818;SDS011;65772;51.096;17.006;2022-12-18T15:20:09;29.70;;;11.50;;
76818;SDS011;65772;51.096;17.006;2022-12-18T15:22:41;31.60;;;11.70;;
76818;SDS011;65772;51.096;17.006;2022-12-18T15:25:22;31.30;;;13.10;;